sensor_id;sensor_type;location;lat;lon;timestamp;temperature;humidity
19544;DHT22;9917;51.256;7.152;2022-09-09T00:00:11;17.20;99.90
19544;DHT22;9917;51.256;7.152;2022-09-09T00:05:17;17.70;99.90
19544;DHT22;9917;51.256;7.152;2022-09-09T00:07:47;16.90;99.90
19544;DHT22;9917;51.256;7.152;2022-09-09T00:10:19;17.30;99.90
19544;DHT22;9917;51.256;7.152;2022-09-09T00:12:52;17.00;99.90
19544;DHT22;9917;51.256;7.152;2022-09-09T00:15:21;16.80;99.90
19544;DHT22;9917;51.256;7.152;2022-09-09T00:17:52;16.70;99.90
19544;DHT22;9917;51.256;7.152;2022-09-09T00:20:24;17.20;99.90
19544;DHT22;9917;51.256;7.152;2022-09-09T00:22:57;16.50;99.90
19544;DHT22;9917;51.256;7.152;2022-09-09T00:25:31;16.90;99.90
19544;DHT22;9917;51.256;7.152;2022-09-09T00:30:27;16.40;99.90
19544;DHT22;9917;51.256;7.152;2022-09-09T00:33:00;16.40;99.90
19544;DHT22;9917;51.256;7.152;2022-09-09T00:35:29;16.60;99.90
19544;DHT22;9917;51.256;7.152;2022-09-09T00:38:01;16.10;99.90
19544;DHT22;9917;51.256;7.152;2022-09-09T00:40:32;16.30;99.90
19544;DHT22;9917;51.256;7.152;2022-09-09T00:43:20;16.30;99.90
19544;DHT22;9917;51.256;7.152;2022-09-09T00:48:54;16.80;99.90
19544;DHT22;9917;51.256;7.152;2022-09-09T00:51:30;16.10;99.90
19544;DHT22;9917;51.256;7.152;2022-09-09T00:54:08;16.30;99.90
19544;DHT22;9917;51.256;7.152;2022-09-09T00:56:43;16.30;99.90
19544;DHT22;9917;51.256;7.152;2022-09-09T00:59:20;16.40;99.90
19544;DHT22;9917;51.256;7.152;2022-09-09T01:01:51;16.10;99.90
19544;DHT22;9917;51.256;7.152;2022-09-09T01:04:25;15.00;99.90
19544;DHT22;9917;51.256;7.152;2022-09-09T01:06:59;16.80;99.90
19544;DHT22;9917;51.256;7.152;2022-09-09T01:09:33;17.00;99.90
19544;DHT22;9917;51.256;7.152;2022-09-09T01:12:11;16.90;99.90
19544;DHT22;9917;51.256;7.152;2022-09-09T01:14:42;16.50;99.90
19544;DHT22;9917;51.256;7.152;2022-09-09T01:17:12;17.00;99.90
19544;DHT22;9917;51.256;7.152;2022-09-09T01:19:47;15.90;99.90
19544;DHT22;9917;51.256;7.152;2022-09-09T01:22:25;17.20;99.90
19544;DHT22;9917;51.256;7.152;2022-09-09T01:27:48;17.20;99.90
19544;DHT22;9917;51.256;7.152;2022-09-09T01:30:17;17.80;99.90
19544;DHT22;9917;51.256;7.152;2022-09-09T01:32:44;16.60;99.90
19544;DHT22;9917;51.256;7.152;2022-09-09T01:35:26;16.80;99.90
19544;DHT22;9917;51.256;7.152;2022-09-09T01:37:53;17.40;99.90
19544;DHT22;9917;51.256;7.152;2022-09-09T01:40:19;17.40;99.90
19544;DHT22;9917;51.256;7.152;2022-09-09T01:45:12;17.20;99.90
19544;DHT22;9917;51.256;7.152;2022-09-09T01:47:38;16.30;99.90
19544;DHT22;9917;51.256;7.152;2022-09-09T01:50:04;16.10;99.90
19544;DHT22;9917;51.256;7.152;2022-09-09T01:52:34;16.40;99.90
19544;DHT22;9917;51.256;7.152;2022-09-09T01:55:01;16.90;99.90
19544;DHT22;9917;51.256;7.152;2022-09-09T01:57:30;16.40;99.90
19544;DHT22;9917;51.256;7.152;2022-09-09T02:00:03;15.60;99.90
19544;DHT22;9917;51.256;7.152;2022-09-09T02:02:35;16.40;99.90
19544;DHT22;9917;51.256;7.152;2022-09-09T02:05:11;17.10;99.90
19544;DHT22;9917;51.256;7.152;2022-09-09T02:07:40;16.10;99.90
19544;DHT22;9917;51.256;7.152;2022-09-09T02:10:10;15.60;99.90
19544;DHT22;9917;51.256;7.152;2022-09-09T02:12:39;16.80;99.90
19544;DHT22;9917;51.256;7.152;2022-09-09T02:15:11;16.30;99.90
19544;DHT22;9917;51.256;7.152;2022-09-09T02:17:42;16.20;99.90
19544;DHT22;9917;51.256;7.152;2022-09-09T02:20:12;16.40;99.90
19544;DHT22;9917;51.256;7.152;2022-09-09T02:22:40;16.00;99.90
19544;DHT22;9917;51.256;7.152;2022-09-09T02:25:10;16.20;99.90
19544;DHT22;9917;51.256;7.152;2022-09-09T02:27:38;15.30;99.90
19544;DHT22;9917;51.256;7.152;2022-09-09T02:30:05;16.00;99.90
19544;DHT22;9917;51.256;7.152;2022-09-09T02:32:34;16.70;99.90
19544;DHT22;9917;51.256;7.152;2022-09-09T02:35:05;16.30;99.90
19544;DHT22;9917;51.256;7.152;2022-09-09T02:37:35;17.00;99.90
19544;DHT22;9917;51.256;7.152;2022-09-09T02:40:02;16.30;99.90
19544;DHT22;9917;51.256;7.152;2022-09-09T02:42:28;16.20;99.90
19544;DHT22;9917;51.256;7.152;2022-09-09T02:47:26;16.40;99.90
19544;DHT22;9917;51.256;7.152;2022-09-09T02:49:59;15.40;99.90
19544;DHT22;9917;51.256;7.152;2022-09-09T02:52:35;15.80;99.90
19544;DHT22;9917;51.256;7.152;2022-09-09T02:55:08;16.30;99.90
19544;DHT22;9917;51.256;7.152;2022-09-09T02:57:38;17.00;99.90
19544;DHT22;9917;51.256;7.152;2022-09-09T03:00:05;16.10;99.90
19544;DHT22;9917;51.256;7.152;2022-09-09T03:02:31;16.60;99.90
19544;DHT22;9917;51.256;7.152;2022-09-09T03:04:56;16.10;99.90
19544;DHT22;9917;51.256;7.152;2022-09-09T03:09:49;16.90;99.90
19544;DHT22;9917;51.256;7.152;2022-09-09T03:12:15;16.40;99.90
19544;DHT22;9917;51.256;7.152;2022-09-09T03:17:07;15.60;99.90
19544;DHT22;9917;51.256;7.152;2022-09-09T03:24:25;16.00;99.90
19544;DHT22;9917;51.256;7.152;2022-09-09T03:26:52;16.00;99.90
19544;DHT22;9917;51.256;7.152;2022-09-09T03:29:18;16.00;99.90
19544;DHT22;9917;51.256;7.152;2022-09-09T03:31:44;15.80;99.90
19544;DHT22;9917;51.256;7.152;2022-09-09T03:34:10;16.70;99.90
19544;DHT22;9917;51.256;7.152;2022-09-09T03:36:36;15.90;99.90
19544;DHT22;9917;51.256;7.152;2022-09-09T03:39:02;15.00;99.90
19544;DHT22;9917;51.256;7.152;2022-09-09T03:41:28;14.90;99.90
19544;DHT22;9917;51.256;7.152;2022-09-09T03:43:55;16.10;99.90
19544;DHT22;9917;51.256;7.152;2022-09-09T03:46:24;16.20;99.90
19544;DHT22;9917;51.256;7.152;2022-09-09T03:48:50;16.30;99.90
19544;DHT22;9917;51.256;7.152;2022-09-09T03:53:42;16.10;99.90
19544;DHT22;9917;51.256;7.152;2022-09-09T03:56:08;16.40;99.90
19544;DHT22;9917;51.256;7.152;2022-09-09T03:58:35;16.10;99.90
19544;DHT22;9917;51.256;7.152;2022-09-09T04:01:04;15.20;99.90
19544;DHT22;9917;51.256;7.152;2022-09-09T04:03:31;16.70;99.90
19544;DHT22;9917;51.256;7.152;2022-09-09T04:05:59;15.90;99.90
19544;DHT22;9917;51.256;7.152;2022-09-09T04:08:25;16.10;99.90
19544;DHT22;9917;51.256;7.152;2022-09-09T04:10:51;15.50;99.90
19544;DHT22;9917;51.256;7.152;2022-09-09T04:13:18;16.60;99.90
19544;DHT22;9917;51.256;7.152;2022-09-09T04:18:11;16.20;99.90
19544;DHT22;9917;51.256;7.152;2022-09-09T04:20:37;16.60;99.90
19544;DHT22;9917;51.256;7.152;2022-09-09T04:25:29;16.70;99.90
19544;DHT22;9917;51.256;7.152;2022-09-09T04:30:21;16.20;99.90
19544;DHT22;9917;51.256;7.152;2022-09-09T04:35:15;16.30;99.90
19544;DHT22;9917;51.256;7.152;2022-09-09T04:37:40;16.90;99.90
19544;DHT22;9917;51.256;7.152;2022-09-09T04:40:08;16.30;99.90
19544;DHT22;9917;51.256;7.152;2022-09-09T04:42:35;16.20;99.90
19544;DHT22;9917;51.256;7.152;2022-09-09T04:45:00;16.10;99.90
19544;DHT22;9917;51.256;7.152;2022-09-09T04:47:26;17.30;99.90
19544;DHT22;9917;51.256;7.152;2022-09-09T04:52:19;16.20;99.90
19544;DHT22;9917;51.256;7.152;2022-09-09T04:54:45;16.80;99.90
19544;DHT22;9917;51.256;7.152;2022-09-09T04:59:36;16.50;99.90
19544;DHT22;9917;51.256;7.152;2022-09-09T05:04:28;16.60;99.90
19544;DHT22;9917;51.256;7.152;2022-09-09T05:09:22;16.40;99.90
19544;DHT22;9917;51.256;7.152;2022-09-09T05:23:57;17.20;99.90
19544;DHT22;9917;51.256;7.152;2022-09-09T05:26:24;16.50;99.90
19544;DHT22;9917;51.256;7.152;2022-09-09T05:28:50;16.30;99.90
19544;DHT22;9917;51.256;7.152;2022-09-09T05:31:17;16.50;99.90
19544;DHT22;9917;51.256;7.152;2022-09-09T05:33:45;15.90;99.90
19544;DHT22;9917;51.256;7.152;2022-09-09T05:36:12;17.10;99.90
19544;DHT22;9917;51.256;7.152;2022-09-09T05:41:05;16.60;99.90
19544;DHT22;9917;51.256;7.152;2022-09-09T05:43:32;16.60;99.90
19544;DHT22;9917;51.256;7.152;2022-09-09T05:46:02;16.70;99.90
19544;DHT22;9917;51.256;7.152;2022-09-09T05:48:28;17.30;99.90
19544;DHT22;9917;51.256;7.152;2022-09-09T05:53:20;17.30;99.90
19544;DHT22;9917;51.256;7.152;2022-09-09T06:00:39;17.00;99.90
19544;DHT22;9917;51.256;7.152;2022-09-09T06:03:05;17.90;99.90
19544;DHT22;9917;51.256;7.152;2022-09-09T06:12:51;17.20;99.90
19544;DHT22;9917;51.256;7.152;2022-09-09T06:17:44;17.40;99.90
19544;DHT22;9917;51.256;7.152;2022-09-09T06:20:10;17.90;99.90
19544;DHT22;9917;51.256;7.152;2022-09-09T06:27:28;17.40;99.90
19544;DHT22;9917;51.256;7.152;2022-09-09T06:34:47;17.20;99.90
19544;DHT22;9917;51.256;7.152;2022-09-09T06:37:14;17.20;99.90
19544;DHT22;9917;51.256;7.152;2022-09-09T06:46:58;16.90;99.90
19544;DHT22;9917;51.256;7.152;2022-09-09T06:51:51;17.90;99.90
19544;DHT22;9917;51.256;7.152;2022-09-09T06:54:17;17.30;99.90
19544;DHT22;9917;51.256;7.152;2022-09-09T06:56:43;17.60;99.90
19544;DHT22;9917;51.256;7.152;2022-09-09T06:59:09;18.80;99.90
19544;DHT22;9917;51.256;7.152;2022-09-09T07:01:36;18.00;99.90
19544;DHT22;9917;51.256;7.152;2022-09-09T07:04:03;17.40;99.90
19544;DHT22;9917;51.256;7.152;2022-09-09T07:06:30;17.80;99.90
19544;DHT22;9917;51.256;7.152;2022-09-09T07:09:00;17.50;99.90
19544;DHT22;9917;51.256;7.152;2022-09-09T07:11:29;17.40;99.90
19544;DHT22;9917;51.256;7.152;2022-09-09T07:13:57;17.30;99.90
19544;DHT22;9917;51.256;7.152;2022-09-09T07:16:23;17.20;99.90
19544;DHT22;9917;51.256;7.152;2022-09-09T07:23:41;17.40;99.90
19544;DHT22;9917;51.256;7.152;2022-09-09T07:26:13;17.50;99.90
19544;DHT22;9917;51.256;7.152;2022-09-09T07:28:39;17.80;99.90
19544;DHT22;9917;51.256;7.152;2022-09-09T07:31:06;17.60;99.90
19544;DHT22;9917;51.256;7.152;2022-09-09T07:33:33;18.00;99.90
19544;DHT22;9917;51.256;7.152;2022-09-09T07:36:04;18.40;99.90
19544;DHT22;9917;51.256;7.152;2022-09-09T07:41:03;19.80;99.90
19544;DHT22;9917;51.256;7.152;2022-09-09T07:43:30;17.90;99.90
19544;DHT22;9917;51.256;7.152;2022-09-09T07:45:57;18.00;99.90
19544;DHT22;9917;51.256;7.152;2022-09-09T08:00:34;18.00;99.90
19544;DHT22;9917;51.256;7.152;2022-09-09T08:17:37;23.20;99.90
19544;DHT22;9917;51.256;7.152;2022-09-09T08:20:04;23.20;99.90
19544;DHT22;9917;51.256;7.152;2022-09-09T08:22:29;22.50;99.90
19544;DHT22;9917;51.256;7.152;2022-09-09T08:34:40;27.80;95.80
19544;DHT22;9917;51.256;7.152;2022-09-09T08:42:24;25.30;96.60
19544;DHT22;9917;51.256;7.152;2022-09-09T08:45:04;25.40;99.90
19544;DHT22;9917;51.256;7.152;2022-09-09T08:47:39;27.20;93.50
19544;DHT22;9917;51.256;7.152;2022-09-09T08:50:21;26.70;93.50
19544;DHT22;9917;51.256;7.152;2022-09-09T08:52:55;24.00;96.90
19544;DHT22;9917;51.256;7.152;2022-09-09T08:55:31;23.70;98.40
19544;DHT22;9917;51.256;7.152;2022-09-09T08:58:05;23.20;99.30
19544;DHT22;9917;51.256;7.152;2022-09-09T09:00:38;22.70;99.90
19544;DHT22;9917;51.256;7.152;2022-09-09T09:03:13;22.10;99.90
19544;DHT22;9917;51.256;7.152;2022-09-09T09:05:47;22.00;99.90
19544;DHT22;9917;51.256;7.152;2022-09-09T09:08:24;21.40;99.90
19544;DHT22;9917;51.256;7.152;2022-09-09T09:10:54;21.20;99.90
19544;DHT22;9917;51.256;7.152;2022-09-09T09:13:26;21.40;99.90
19544;DHT22;9917;51.256;7.152;2022-09-09T09:15:58;20.30;99.90
19544;DHT22;9917;51.256;7.152;2022-09-09T09:18:26;20.10;99.90
19544;DHT22;9917;51.256;7.152;2022-09-09T09:21:00;19.10;99.90
19544;DHT22;9917;51.256;7.152;2022-09-09T09:23:35;19.80;99.90
19544;DHT22;9917;51.256;7.152;2022-09-09T09:26:07;19.70;99.90
19544;DHT22;9917;51.256;7.152;2022-09-09T09:31:04;19.90;99.90
19544;DHT22;9917;51.256;7.152;2022-09-09T09:33:33;20.10;99.90
19544;DHT22;9917;51.256;7.152;2022-09-09T09:36:02;20.30;99.90
19544;DHT22;9917;51.256;7.152;2022-09-09T09:38:29;20.80;99.90
19544;DHT22;9917;51.256;7.152;2022-09-09T09:40:57;20.70;99.90
19544;DHT22;9917;51.256;7.152;2022-09-09T09:43:25;22.00;99.90
19544;DHT22;9917;51.256;7.152;2022-09-09T09:45:52;22.40;99.90
19544;DHT22;9917;51.256;7.152;2022-09-09T09:50:49;21.70;99.90
19544;DHT22;9917;51.256;7.152;2022-09-09T09:53:25;21.50;99.90
19544;DHT22;9917;51.256;7.152;2022-09-09T09:55:56;21.30;99.90
19544;DHT22;9917;51.256;7.152;2022-09-09T09:58:23;21.40;99.90
19544;DHT22;9917;51.256;7.152;2022-09-09T10:00:51;21.40;99.90
19544;DHT22;9917;51.256;7.152;2022-09-09T10:03:26;21.10;99.90
19544;DHT22;9917;51.256;7.152;2022-09-09T10:05:54;20.50;99.90
19544;DHT22;9917;51.256;7.152;2022-09-09T10:08:20;21.20;99.90
19544;DHT22;9917;51.256;7.152;2022-09-09T10:13:49;21.90;99.90
19544;DHT22;9917;51.256;7.152;2022-09-09T10:16:27;22.60;99.90
19544;DHT22;9917;51.256;7.152;2022-09-09T10:18:59;21.10;99.90
19544;DHT22;9917;51.256;7.152;2022-09-09T10:24:51;23.70;96.80
19544;DHT22;9917;51.256;7.152;2022-09-09T10:27:23;25.70;92.40
19544;DHT22;9917;51.256;7.152;2022-09-09T10:30:03;25.70;90.20
19544;DHT22;9917;51.256;7.152;2022-09-09T10:32:46;25.20;90.20
19544;DHT22;9917;51.256;7.152;2022-09-09T10:35:24;24.60;91.00
19544;DHT22;9917;51.256;7.152;2022-09-09T10:38:17;23.20;92.60
19544;DHT22;9917;51.256;7.152;2022-09-09T10:40:59;22.40;98.70
19544;DHT22;9917;51.256;7.152;2022-09-09T10:46:25;23.60;93.50
19544;DHT22;9917;51.256;7.152;2022-09-09T10:49:02;24.80;96.70
19544;DHT22;9917;51.256;7.152;2022-09-09T10:51:38;24.90;91.60
19544;DHT22;9917;51.256;7.152;2022-09-09T10:54:17;24.60;94.80
19544;DHT22;9917;51.256;7.152;2022-09-09T10:56:51;23.70;91.90
19544;DHT22;9917;51.256;7.152;2022-09-09T10:59:21;23.60;92.40
19544;DHT22;9917;51.256;7.152;2022-09-09T11:01:53;23.70;92.00
19544;DHT22;9917;51.256;7.152;2022-09-09T11:04:30;23.70;91.80
19544;DHT22;9917;51.256;7.152;2022-09-09T11:09:26;23.80;91.70
19544;DHT22;9917;51.256;7.152;2022-09-09T11:11:55;23.50;95.50
19544;DHT22;9917;51.256;7.152;2022-09-09T11:14:28;23.20;92.10
19544;DHT22;9917;51.256;7.152;2022-09-09T11:16:58;23.90;96.10
19544;DHT22;9917;51.256;7.152;2022-09-09T11:19:28;23.60;91.80
19544;DHT22;9917;51.256;7.152;2022-09-09T11:24:26;23.90;91.30
19544;DHT22;9917;51.256;7.152;2022-09-09T11:26:57;24.20;90.90
19544;DHT22;9917;51.256;7.152;2022-09-09T11:32:46;23.10;96.20
19544;DHT22;9917;51.256;7.152;2022-09-09T11:35:30;22.90;92.40
19544;DHT22;9917;51.256;7.152;2022-09-09T11:40:57;23.70;96.00
19544;DHT22;9917;51.256;7.152;2022-09-09T11:43:27;22.50;96.20
19544;DHT22;9917;51.256;7.152;2022-09-09T11:45:57;23.30;97.70
19544;DHT22;9917;51.256;7.152;2022-09-09T11:48:26;23.40;96.70
19544;DHT22;9917;51.256;7.152;2022-09-09T11:51:06;21.90;93.50
19544;DHT22;9917;51.256;7.152;2022-09-09T11:53:33;22.60;95.70
19544;DHT22;9917;51.256;7.152;2022-09-09T11:56:08;21.70;96.60
19544;DHT22;9917;51.256;7.152;2022-09-09T11:58:38;21.20;97.60
19544;DHT22;9917;51.256;7.152;2022-09-09T12:06:50;20.20;99.90
19544;DHT22;9917;51.256;7.152;2022-09-09T12:09:21;19.30;99.90
19544;DHT22;9917;51.256;7.152;2022-09-09T12:11:48;21.20;99.90
19544;DHT22;9917;51.256;7.152;2022-09-09T12:14:20;21.60;99.90
19544;DHT22;9917;51.256;7.152;2022-09-09T12:16:47;22.00;99.90
19544;DHT22;9917;51.256;7.152;2022-09-09T12:19:15;23.90;99.90
19544;DHT22;9917;51.256;7.152;2022-09-09T12:21:46;24.30;97.70
19544;DHT22;9917;51.256;7.152;2022-09-09T12:24:19;24.00;98.20
19544;DHT22;9917;51.256;7.152;2022-09-09T12:26:49;23.90;97.20
19544;DHT22;9917;51.256;7.152;2022-09-09T12:29:24;23.50;96.70
19544;DHT22;9917;51.256;7.152;2022-09-09T12:31:58;22.90;96.20
19544;DHT22;9917;51.256;7.152;2022-09-09T12:34:36;22.30;99.80
19544;DHT22;9917;51.256;7.152;2022-09-09T12:37:06;22.50;99.90
19544;DHT22;9917;51.256;7.152;2022-09-09T12:39:40;21.90;99.90
19544;DHT22;9917;51.256;7.152;2022-09-09T12:42:17;21.50;98.10
19544;DHT22;9917;51.256;7.152;2022-09-09T12:44:51;21.40;98.80
19544;DHT22;9917;51.256;7.152;2022-09-09T12:47:19;21.50;99.40
19544;DHT22;9917;51.256;7.152;2022-09-09T12:49:47;22.10;99.90
19544;DHT22;9917;51.256;7.152;2022-09-09T12:52:18;22.00;99.90
19544;DHT22;9917;51.256;7.152;2022-09-09T12:54:46;22.50;99.90
19544;DHT22;9917;51.256;7.152;2022-09-09T12:57:13;22.40;98.80
19544;DHT22;9917;51.256;7.152;2022-09-09T12:59:40;22.00;99.90
19544;DHT22;9917;51.256;7.152;2022-09-09T13:02:20;21.70;98.20
19544;DHT22;9917;51.256;7.152;2022-09-09T13:07:12;22.30;98.60
19544;DHT22;9917;51.256;7.152;2022-09-09T13:12:06;23.40;96.20
19544;DHT22;9917;51.256;7.152;2022-09-09T13:14:36;22.90;96.70
19544;DHT22;9917;51.256;7.152;2022-09-09T13:17:04;22.40;97.30
19544;DHT22;9917;51.256;7.152;2022-09-09T13:19:34;22.10;99.90
19544;DHT22;9917;51.256;7.152;2022-09-09T13:22:11;21.40;99.90
19544;DHT22;9917;51.256;7.152;2022-09-09T13:24:37;20.50;99.90
19544;DHT22;9917;51.256;7.152;2022-09-09T13:27:04;20.60;99.90
19544;DHT22;9917;51.256;7.152;2022-09-09T13:29:31;19.20;99.90
19544;DHT22;9917;51.256;7.152;2022-09-09T13:32:04;18.60;99.90
19544;DHT22;9917;51.256;7.152;2022-09-09T13:34:32;17.70;99.90
19544;DHT22;9917;51.256;7.152;2022-09-09T13:37:00;17.00;99.90
19544;DHT22;9917;51.256;7.152;2022-09-09T13:39:26;18.80;99.90
19544;DHT22;9917;51.256;7.152;2022-09-09T13:44:20;18.20;99.90
19544;DHT22;9917;51.256;7.152;2022-09-09T13:46:47;18.40;99.90
19544;DHT22;9917;51.256;7.152;2022-09-09T13:49:22;18.00;99.90
19544;DHT22;9917;51.256;7.152;2022-09-09T13:51:50;18.10;99.90
19544;DHT22;9917;51.256;7.152;2022-09-09T13:54:18;19.50;99.90
19544;DHT22;9917;51.256;7.152;2022-09-09T13:56:44;19.30;99.90
19544;DHT22;9917;51.256;7.152;2022-09-09T13:59:11;20.60;99.90
19544;DHT22;9917;51.256;7.152;2022-09-09T14:08:57;27.80;99.90
19544;DHT22;9917;51.256;7.152;2022-09-09T14:18:41;28.00;94.30
19544;DHT22;9917;51.256;7.152;2022-09-09T14:26:00;24.80;99.90
19544;DHT22;9917;51.256;7.152;2022-09-09T14:40:37;20.80;99.90
19544;DHT22;9917;51.256;7.152;2022-09-09T14:43:05;21.70;99.90
19544;DHT22;9917;51.256;7.152;2022-09-09T14:45:31;24.30;99.90
19544;DHT22;9917;51.256;7.152;2022-09-09T14:47:57;20.20;99.90
19544;DHT22;9917;51.256;7.152;2022-09-09T14:50:23;20.30;99.90
19544;DHT22;9917;51.256;7.152;2022-09-09T14:55:15;18.10;99.90
19544;DHT22;9917;51.256;7.152;2022-09-09T15:00:10;17.00;99.90
19544;DHT22;9917;51.256;7.152;2022-09-09T15:02:35;17.60;99.90
19544;DHT22;9917;51.256;7.152;2022-09-09T15:07:27;16.60;99.90
19544;DHT22;9917;51.256;7.152;2022-09-09T15:17:13;16.30;99.90
19544;DHT22;9917;51.256;7.152;2022-09-09T15:19:39;16.60;99.90
19544;DHT22;9917;51.256;7.152;2022-09-09T15:22:05;16.40;99.90
19544;DHT22;9917;51.256;7.152;2022-09-09T15:24:31;15.80;99.90
19544;DHT22;9917;51.256;7.152;2022-09-09T15:29:23;16.00;99.90
19544;DHT22;9917;51.256;7.152;2022-09-09T15:34:16;15.90;99.90
19544;DHT22;9917;51.256;7.152;2022-09-09T15:36:43;16.00;99.90
19544;DHT22;9917;51.256;7.152;2022-09-09T15:39:11;16.50;99.90
19544;DHT22;9917;51.256;7.152;2022-09-09T15:44:04;15.80;99.90
19544;DHT22;9917;51.256;7.152;2022-09-09T15:46:31;15.90;99.90
19544;DHT22;9917;51.256;7.152;2022-09-09T15:49:02;16.10;99.90
19544;DHT22;9917;51.256;7.152;2022-09-09T15:51:30;15.90;99.90
19544;DHT22;9917;51.256;7.152;2022-09-09T15:53:57;15.80;99.90
19544;DHT22;9917;51.256;7.152;2022-09-09T15:56:23;16.50;99.90
19544;DHT22;9917;51.256;7.152;2022-09-09T16:01:15;18.00;99.90
19544;DHT22;9917;51.256;7.152;2022-09-09T16:03:41;16.20;99.90
19544;DHT22;9917;51.256;7.152;2022-09-09T16:08:37;17.10;99.90
19544;DHT22;9917;51.256;7.152;2022-09-09T16:11:07;17.30;99.90
19544;DHT22;9917;51.256;7.152;2022-09-09T16:13:34;17.80;99.90
19544;DHT22;9917;51.256;7.152;2022-09-09T16:16:00;16.90;99.90
19544;DHT22;9917;51.256;7.152;2022-09-09T16:18:26;16.80;99.90
19544;DHT22;9917;51.256;7.152;2022-09-09T16:20:54;17.00;99.90
19544;DHT22;9917;51.256;7.152;2022-09-09T16:23:20;16.90;99.90
19544;DHT22;9917;51.256;7.152;2022-09-09T16:25:54;15.50;99.90
19544;DHT22;9917;51.256;7.152;2022-09-09T16:30:47;16.90;99.90
19544;DHT22;9917;51.256;7.152;2022-09-09T16:33:13;16.60;99.90
19544;DHT22;9917;51.256;7.152;2022-09-09T16:35:38;17.00;99.90
19544;DHT22;9917;51.256;7.152;2022-09-09T16:40:30;16.90;99.90
19544;DHT22;9917;51.256;7.152;2022-09-09T16:43:03;16.80;99.90
19544;DHT22;9917;51.256;7.152;2022-09-09T16:47:56;17.00;99.90
19544;DHT22;9917;51.256;7.152;2022-09-09T16:55:14;17.30;99.90
19544;DHT22;9917;51.256;7.152;2022-09-09T16:57:40;17.90;99.90
19544;DHT22;9917;51.256;7.152;2022-09-09T17:00:09;17.20;99.90
19544;DHT22;9917;51.256;7.152;2022-09-09T17:02:34;17.10;99.90
19544;DHT22;9917;51.256;7.152;2022-09-09T17:17:11;16.70;99.90
19544;DHT22;9917;51.256;7.152;2022-09-09T17:19:39;17.20;99.90
19544;DHT22;9917;51.256;7.152;2022-09-09T17:22:05;17.60;99.90
19544;DHT22;9917;51.256;7.152;2022-09-09T17:29:23;17.40;99.90
19544;DHT22;9917;51.256;7.152;2022-09-09T17:34:16;17.00;99.90
19544;DHT22;9917;51.256;7.152;2022-09-09T17:36:42;16.70;99.90
19544;DHT22;9917;51.256;7.152;2022-09-09T17:41:35;15.70;99.90
19544;DHT22;9917;51.256;7.152;2022-09-09T17:44:02;17.00;99.90
19544;DHT22;9917;51.256;7.152;2022-09-09T17:46:31;17.00;99.90
19544;DHT22;9917;51.256;7.152;2022-09-09T17:48:58;17.30;99.90
19544;DHT22;9917;51.256;7.152;2022-09-09T17:51:28;16.80;99.90
19544;DHT22;9917;51.256;7.152;2022-09-09T17:53:56;16.20;99.90
19544;DHT22;9917;51.256;7.152;2022-09-09T17:56:25;16.40;99.90
19544;DHT22;9917;51.256;7.152;2022-09-09T17:58:51;16.70;99.90
19544;DHT22;9917;51.256;7.152;2022-09-09T18:01:19;16.00;99.90
19544;DHT22;9917;51.256;7.152;2022-09-09T18:03:46;16.50;99.90
19544;DHT22;9917;51.256;7.152;2022-09-09T18:06:16;16.40;99.90
19544;DHT22;9917;51.256;7.152;2022-09-09T18:08:47;16.10;99.90
19544;DHT22;9917;51.256;7.152;2022-09-09T18:16:06;16.70;99.90
19544;DHT22;9917;51.256;7.152;2022-09-09T18:18:33;16.40;99.90
19544;DHT22;9917;51.256;7.152;2022-09-09T18:21:00;16.40;99.90
19544;DHT22;9917;51.256;7.152;2022-09-09T18:23:26;16.10;99.90
19544;DHT22;9917;51.256;7.152;2022-09-09T18:25:53;16.60;99.90
19544;DHT22;9917;51.256;7.152;2022-09-09T18:28:20;15.70;99.90
19544;DHT22;9917;51.256;7.152;2022-09-09T18:30:46;15.90;99.90
19544;DHT22;9917;51.256;7.152;2022-09-09T18:38:04;15.60;99.90
19544;DHT22;9917;51.256;7.152;2022-09-09T18:40:30;16.90;99.90
19544;DHT22;9917;51.256;7.152;2022-09-09T18:42:57;15.70;99.90
19544;DHT22;9917;51.256;7.152;2022-09-09T18:47:49;16.70;99.90
19544;DHT22;9917;51.256;7.152;2022-09-09T18:50:15;16.70;99.90
19544;DHT22;9917;51.256;7.152;2022-09-09T18:55:07;15.60;99.90
19544;DHT22;9917;51.256;7.152;2022-09-09T19:00:01;16.30;99.90
19544;DHT22;9917;51.256;7.152;2022-09-09T19:02:27;16.00;99.90
19544;DHT22;9917;51.256;7.152;2022-09-09T19:12:11;16.50;99.90
19544;DHT22;9917;51.256;7.152;2022-09-09T19:17:04;16.40;99.90
19544;DHT22;9917;51.256;7.152;2022-09-09T19:19:31;16.50;99.90
19544;DHT22;9917;51.256;7.152;2022-09-09T19:21:57;15.30;99.90
19544;DHT22;9917;51.256;7.152;2022-09-09T19:24:24;16.40;99.90
19544;DHT22;9917;51.256;7.152;2022-09-09T19:26:52;16.40;99.90
19544;DHT22;9917;51.256;7.152;2022-09-09T19:29:19;16.90;99.90
19544;DHT22;9917;51.256;7.152;2022-09-09T19:31:46;14.20;99.90
19544;DHT22;9917;51.256;7.152;2022-09-09T19:34:13;16.20;99.90
19544;DHT22;9917;51.256;7.152;2022-09-09T19:39:07;16.10;99.90
19544;DHT22;9917;51.256;7.152;2022-09-09T19:44:00;17.20;99.90
19544;DHT22;9917;51.256;7.152;2022-09-09T19:46:27;16.10;99.90
19544;DHT22;9917;51.256;7.152;2022-09-09T19:48:53;15.90;99.90
19544;DHT22;9917;51.256;7.152;2022-09-09T19:51:21;16.10;99.90
19544;DHT22;9917;51.256;7.152;2022-09-09T19:53:48;16.30;99.90
19544;DHT22;9917;51.256;7.152;2022-09-09T19:56:15;16.20;99.90
19544;DHT22;9917;51.256;7.152;2022-09-09T19:58:41;17.00;99.90
19544;DHT22;9917;51.256;7.152;2022-09-09T20:01:09;16.50;99.90
19544;DHT22;9917;51.256;7.152;2022-09-09T20:06:01;15.90;99.90
19544;DHT22;9917;51.256;7.152;2022-09-09T20:08:28;16.40;99.90
19544;DHT22;9917;51.256;7.152;2022-09-09T20:10:54;15.60;99.90
19544;DHT22;9917;51.256;7.152;2022-09-09T20:15:45;16.10;99.90
19544;DHT22;9917;51.256;7.152;2022-09-09T20:20:39;17.00;99.90
19544;DHT22;9917;51.256;7.152;2022-09-09T20:25:35;16.60;99.90
19544;DHT22;9917;51.256;7.152;2022-09-09T20:28:01;17.10;99.90
19544;DHT22;9917;51.256;7.152;2022-09-09T20:30:27;16.90;99.90
19544;DHT22;9917;51.256;7.152;2022-09-09T20:35:19;16.50;99.90
19544;DHT22;9917;51.256;7.152;2022-09-09T20:42:39;16.60;99.90
19544;DHT22;9917;51.256;7.152;2022-09-09T20:45:06;16.70;99.90
19544;DHT22;9917;51.256;7.152;2022-09-09T20:47:34;17.00;99.90
19544;DHT22;9917;51.256;7.152;2022-09-09T20:50:00;16.40;99.90
19544;DHT22;9917;51.256;7.152;2022-09-09T20:57:18;16.00;99.90
19544;DHT22;9917;51.256;7.152;2022-09-09T20:59:45;16.70;99.90
19544;DHT22;9917;51.256;7.152;2022-09-09T21:02:10;18.00;99.90
19544;DHT22;9917;51.256;7.152;2022-09-09T21:04:38;16.60;99.90
19544;DHT22;9917;51.256;7.152;2022-09-09T21:07:05;16.90;99.90
19544;DHT22;9917;51.256;7.152;2022-09-09T21:09:31;16.70;99.90
19544;DHT22;9917;51.256;7.152;2022-09-09T21:11:59;17.00;99.90
19544;DHT22;9917;51.256;7.152;2022-09-09T21:14:28;17.20;99.90
19544;DHT22;9917;51.256;7.152;2022-09-09T21:16:55;16.20;99.90
19544;DHT22;9917;51.256;7.152;2022-09-09T21:26:39;16.90;99.90
19544;DHT22;9917;51.256;7.152;2022-09-09T21:31:31;16.80;99.90
19544;DHT22;9917;51.256;7.152;2022-09-09T21:33:59;17.20;99.90
19544;DHT22;9917;51.256;7.152;2022-09-09T21:36:25;16.70;99.90